Time;durP1;ratioP1;P1;durP2;ratioP2;P2;SDS_P1;SDS_P2;PMS_P1;PMS_P2;Temp;Humidity;BMP_temperature;BMP_pressure;BME280_temperature;BME280_humidity;BME280_pressure;Samples;Min_cycle;Max_cycle;Signal;HPM_P1;HPM_P2
2021/03/07 00:01:51;;;;;;;15.85;10.00;;;;;;;4.05;75.74;101661.47;5073457;28;20064;-74
2021/03/07 00:04:25;;;;;;;13.32;9.75;;;;;;;3.90;76.70;101661.91;5074852;28;20031;-74
2021/03/07 00:07:05;;;;;;;13.70;8.95;;;;;;;4.25;74.64;101660.31;5073539;28;20016;-74
2021/03/07 00:09:45;;;;;;;12.88;9.27;;;;;;;4.52;73.86;101660.09;5073393;28;20039;-74
2021/03/07 00:12:18;;;;;;;13.50;8.93;;;;;;;4.06;75.30;101661.50;5073487;28;20486;-74
2021/03/07 00:14:47;;;;;;;13.32;9.80;;;;;;;3.85;76.19;101665.13;5073627;28;20028;-74
2021/03/07 00:17:12;;;;;;;13.30;9.32;;;;;;;3.98;75.91;101634.47;5074442;28;20402;-74
2021/03/07 00:20:11;;;;;;;12.38;9.45;;;;;;;3.88;76.69;101657.69;5074356;28;20020;-75
2021/03/07 00:22:37;;;;;;;12.10;9.32;;;;;;;3.86;77.50;101656.78;5074421;28;20050;-74
2021/03/07 00:25:11;;;;;;;12.73;8.85;;;;;;;3.84;77.40;101646.69;5074530;28;20071;-74
2021/03/07 00:27:40;;;;;;;12.90;8.73;;;;;;;3.91;77.09;101640.13;5073190;28;20040;-74
2021/03/07 00:30:10;;;;;;;11.30;8.70;;;;;;;4.03;75.60;101648.00;5073173;28;20046;-74
2021/03/07 00:32:47;;;;;;;12.27;8.15;;;;;;;3.86;76.01;101644.22;5073381;28;20033;-74
2021/03/07 00:35:16;;;;;;;12.15;8.27;;;;;;;3.82;77.55;101643.28;5072817;28;20052;-74
2021/03/07 00:37:46;;;;;;;12.07;8.77;;;;;;;3.69;78.03;101647.91;5073135;28;20024;-75
2021/03/07 00:40:12;;;;;;;11.82;9.13;;;;;;;4.01;77.40;101644.59;5073719;28;20025;-74
2021/03/07 00:42:44;;;;;;;11.95;9.07;;;;;;;3.76;76.74;101619.63;5073938;28;20020;-74
2021/03/07 00:45:12;;;;;;;10.73;8.25;;;;;;;3.88;77.25;101638.38;5073691;28;20028;-74
2021/03/07 00:47:37;;;;;;;12.00;8.95;;;;;;;4.21;76.01;101634.22;5085125;28;20036;-75
2021/03/07 00:50:12;;;;;;;12.13;8.50;;;;;;;3.92;77.42;101647.72;5095446;28;20020;-75
2021/03/07 00:52:37;;;;;;;11.48;8.48;;;;;;;4.32;77.13;101647.03;5095334;28;20130;-75
2021/03/07 00:55:09;;;;;;;11.40;8.32;;;;;;;3.77;78.34;101618.81;5095625;28;20169;-74
2021/03/07 00:57:53;;;;;;;12.77;9.20;;;;;;;4.12;77.20;101643.22;5076631;28;20020;-74
2021/03/07 01:00:51;;;;;;;12.63;9.02;;;;;;;4.44;76.03;101646.50;5077806;28;20028;-77
2021/03/07 01:03:34;;;;;;;14.13;8.43;;;;;;;3.97;77.08;101648.69;5075909;28;20039;-74
2021/03/07 01:06:07;;;;;;;12.43;8.77;;;;;;;3.97;77.98;101643.66;5076084;28;20028;-74
2021/03/07 01:08:53;;;;;;;14.98;9.35;;;;;;;4.05;78.34;101652.25;5075981;28;20032;-74
2021/03/07 01:11:25;;;;;;;12.38;8.43;;;;;;;4.05;78.62;101646.38;5093515;28;20028;-74
2021/03/07 01:16:53;;;;;;;11.85;7.93;;;;;;;4.05;77.43;101641.34;5093501;28;19945;-74
2021/03/07 01:19:33;;;;;;;14.30;9.45;;;;;;;4.27;76.72;101634.38;5075533;28;20025;-74
2021/03/07 01:21:59;;;;;;;12.70;9.10;;;;;;;3.99;77.35;101643.69;5093363;28;20111;-74
2021/03/07 01:24:35;;;;;;;13.07;9.13;;;;;;;4.40;75.65;101648.94;5075621;28;20079;-74
2021/03/07 01:27:05;;;;;;;13.18;8.75;;;;;;;4.24;76.04;101646.84;5075531;28;20024;-74
2021/03/07 01:29:45;;;;;;;13.80;9.73;;;;;;;4.44;74.86;101644.81;5093386;28;20504;-74
2021/03/07 01:32:12;;;;;;;14.05;9.32;;;;;;;4.53;75.73;101642.53;5093362;28;20553;-74
2021/03/07 01:34:39;;;;;;;13.00;8.80;;;;;;;4.47;75.42;101636.50;5093043;28;20063;-75
2021/03/07 01:37:06;;;;;;;13.07;9.25;;;;;;;4.47;76.30;101633.97;5075340;28;20459;-74
2021/03/07 01:39:39;;;;;;;12.57;9.20;;;;;;;4.15;77.10;101638.25;5075023;28;20111;-74
2021/03/07 01:42:37;;;;;;;12.93;9.00;;;;;;;4.22;76.12;101635.03;5075617;28;20024;-74
2021/03/07 01:45:22;;;;;;;14.75;9.30;;;;;;;4.54;74.20;101633.28;5075126;28;20054;-74
2021/03/07 01:48:05;;;;;;;11.50;8.50;;;;;;;4.23;75.58;101626.69;5092936;28;20044;-74
2021/03/07 01:50:41;;;;;;;12.90;9.00;;;;;;;4.24;75.89;101621.69;5092824;28;20027;-74
2021/03/07 01:54:02;;;;;;;12.70;9.27;;;;;;;4.47;76.48;101623.91;5074657;28;20039;-74
2021/03/07 01:56:45;;;;;;;14.80;9.45;;;;;;;4.57;76.27;101613.22;5074836;28;20046;-74
2021/03/07 01:59:49;;;;;;;16.83;11.40;;;;;;;4.34;76.69;101620.25;5092318;28;20028;-74
2021/03/07 02:02:15;;;;;;;15.73;11.68;;;;;;;4.33;76.24;101623.59;5074546;28;20504;-74
2021/03/07 02:04:44;;;;;;;16.02;11.40;;;;;;;4.75;75.45;101622.06;5092709;28;20035;-75
2021/03/07 02:07:45;;;;;;;17.45;11.27;;;;;;;4.38;77.43;101622.88;5074666;28;20416;-74
2021/03/07 02:10:41;;;;;;;15.88;10.15;;;;;;;3.87;78.15;101630.81;5074609;28;20122;-75
2021/03/07 02:13:13;;;;;;;12.85;9.07;;;;;;;3.97;79.17;101622.69;5089153;28;20149;-74
2021/03/07 02:15:41;;;;;;;;;;;;;;;3.94;79.97;101620.09;5074887;28;20032;-74
2021/03/07 02:18:09;;;;;;;14.82;10.48;;;;;;;4.11;78.68;101608.78;5074582;28;19970;-74
2021/03/07 02:20:54;;;;;;;16.48;11.55;;;;;;;4.09;79.50;101617.97;5074414;28;20024;-74
2021/03/07 02:23:26;;;;;;;17.23;10.90;;;;;;;3.96;78.13;101606.72;5093427;28;20082;-75
2021/03/07 02:25:53;;;;;;;17.58;11.55;;;;;;;3.92;78.81;101617.53;5074573;28;20028;-74
2021/03/07 02:28:29;;;;;;;17.42;11.60;;;;;;;4.03;78.29;101610.25;5092563;28;20078;-74
2021/03/07 02:30:55;;;;;;;17.00;11.27;;;;;;;4.19;77.27;101615.72;5092168;28;20421;-74
2021/03/07 02:33:34;;;;;;;17.17;11.20;;;;;;;4.34;76.56;101615.19;5092129;28;20031;-74
2021/03/07 02:36:35;;;;;;;17.95;12.00;;;;;;;4.30;76.45;101610.91;5092206;28;20035;-74
2021/03/07 02:39:01;;;;;;;17.23;11.63;;;;;;;4.19;76.59;101620.75;5038651;28;20406;-74
2021/03/07 02:41:36;;;;;;;15.02;10.40;;;;;;;4.51;76.79;101606.41;5092024;28;20021;-74
2021/03/07 02:44:07;;;;;;;16.10;10.93;;;;;;;4.49;75.91;101607.16;5091968;28;20066;-74
2021/03/07 02:46:36;;;;;;;15.90;9.95;;;;;;;4.18;76.04;101590.50;5090278;28;20028;-74
2021/03/07 02:49:14;;;;;;;41.40;24.83;;;;;;;4.20;77.68;101602.28;5092099;28;20028;-74
2021/03/07 02:51:47;;;;;;;47.33;26.73;;;;;;;4.15;77.01;101603.00;5074454;28;20032;-75
2021/03/07 02:54:20;;;;;;;60.13;33.00;;;;;;;4.13;77.82;101613.03;5074093;28;20781;-74
2021/03/07 02:56:52;;;;;;;55.28;32.30;;;;;;;3.86;79.60;101587.22;5074067;28;20568;-74
2021/03/07 02:59:30;;;;;;;;;;;;;;;3.90;78.52;101616.63;5074269;28;20104;-74
2021/03/07 03:02:03;;;;;;;22.02;13.98;;;;;;;3.51;79.53;101618.13;5073700;28;19912;-74
2021/03/07 03:05:15;;;;;;;20.65;13.63;;;;;;;3.77;78.89;101617.16;5091810;28;20023;-74
2021/03/07 03:07:42;;;;;;;21.63;12.93;;;;;;;4.04;78.80;101606.94;5073975;28;20036;-74
2021/03/07 03:10:12;;;;;;;24.83;14.85;;;;;;;4.19;77.40;101614.84;5072947;28;20032;-74
2021/03/07 03:12:59;;;;;;;23.08;13.02;;;;;;;3.89;77.74;101619.97;5073617;28;20085;-74
2021/03/07 03:15:44;;;;;;;22.42;13.88;;;;;;;4.12;78.18;101610.50;5073714;28;20059;-74
2021/03/07 03:18:32;;;;;;;19.05;12.38;;;;;;;4.19;78.09;101615.72;5073786;28;20062;-75
2021/03/07 03:21:12;;;;;;;17.15;11.18;;;;;;;3.97;77.64;101600.91;5091665;28;20032;-74
2021/03/07 03:23:55;;;;;;;16.08;11.35;;;;;;;4.04;76.93;101610.28;5092000;28;20039;-74
2021/03/07 03:26:39;;;;;;;16.70;11.70;;;;;;;3.71;79.23;101611.09;5091471;28;20042;-74
2021/03/07 03:29:56;;;;;;;22.15;15.00;;;;;;;4.07;77.91;101617.94;5091686;28;20035;-74
2021/03/07 03:32:29;;;;;;;21.33;12.73;;;;;;;3.74;80.08;101599.47;5091584;28;20032;-74
2021/03/07 03:35:15;;;;;;;17.73;12.43;;;;;;;3.67;80.15;101614.34;5091268;28;20485;-74
2021/03/07 03:37:42;;;;;;;21.38;13.45;;;;;;;3.60;79.77;101609.97;5091496;28;20106;-74
2021/03/07 03:40:32;;;;;;;21.88;12.88;;;;;;;3.56;79.95;101613.22;5091558;28;20107;-73
2021/03/07 03:43:16;;;;;;;17.33;11.75;;;;;;;3.49;80.43;101602.13;5091241;28;20027;-73
2021/03/07 03:45:45;;;;;;;19.23;11.23;;;;;;;3.40;80.58;101604.41;5091389;28;20095;-73
2021/03/07 03:48:27;;;;;;;16.88;11.32;;;;;;;3.39;80.48;101606.06;5073716;28;20101;-74
2021/03/07 03:50:57;;;;;;;;;;;;;;;3.32;81.65;101611.75;5073578;28;20489;-73
2021/03/07 03:53:24;;;;;;;13.43;9.50;;;;;;;3.74;79.63;101603.66;5091260;28;19916;-74
2021/03/07 03:56:04;;;;;;;23.08;14.35;;;;;;;3.23;80.65;101624.03;5073075;28;20029;-74
2021/03/07 03:58:41;;;;;;;22.80;14.02;;;;;;;3.28;81.35;101616.66;5073384;28;20111;-74
2021/03/07 04:01:17;;;;;;;21.33;13.45;;;;;;;3.29;80.65;101615.81;5073306;28;20092;-74
2021/03/07 04:03:49;;;;;;;36.30;21.17;;;;;;;2.96;79.98;101577.19;5091195;28;20024;-74
2021/03/07 04:06:25;;;;;;;38.70;22.75;;;;;;;3.21;80.26;101618.13;5090989;28;20028;-74
2021/03/07 04:09:10;;;;;;;37.25;21.00;;;;;;;3.17;80.80;101625.56;5091298;28;20016;-74
2021/03/07 04:11:37;;;;;;;30.38;18.70;;;;;;;3.21;80.54;101615.63;5091271;28;20032;-74
2021/03/07 04:14:08;;;;;;;28.63;17.90;;;;;;;3.12;81.33;101615.38;5091029;28;20024;-74
2021/03/07 04:16:50;;;;;;;24.90;16.67;;;;;;;3.32;80.44;101613.41;5091262;28;20035;-74
2021/03/07 04:19:17;;;;;;;28.60;16.98;;;;;;;3.03;81.62;101615.09;5073147;28;20024;-74
2021/03/07 04:21:46;;;;;;;24.67;15.88;;;;;;;3.06;81.01;101621.88;5075069;28;20066;-74
2021/03/07 04:24:41;;;;;;;29.17;18.73;;;;;;;3.18;82.01;101610.53;5076800;28;20073;-74
2021/03/07 04:27:07;;;;;;;32.05;20.15;;;;;;;3.06;83.04;101606.78;5094738;28;20032;-74
2021/03/07 04:29:39;;;;;;;25.20;17.33;;;;;;;2.70;82.56;101603.22;5094960;28;20032;-74
2021/03/07 04:32:07;;;;;;;22.17;13.90;;;;;;;2.67;80.98;101606.50;5076791;28;20047;-74
2021/03/07 04:34:35;;;;;;;18.65;12.40;;;;;;;2.61;79.78;101597.09;5075265;28;20112;-74
2021/03/07 04:37:11;;;;;;;18.65;11.85;;;;;;;2.97;77.55;101604.88;5094524;28;20408;-74
2021/03/07 04:39:39;;;;;;;16.52;12.38;;;;;;;2.57;78.09;101599.50;5094592;28;20028;-75
2021/03/07 04:42:28;;;;;;;16.00;10.55;;;;;;;2.71;77.44;101609.94;5076867;28;20462;-74
2021/03/07 04:45:04;;;;;;;15.18;10.05;;;;;;;2.75;76.38;101605.06;5076433;28;20119;-75
2021/03/07 04:47:30;;;;;;;15.35;10.18;;;;;;;2.60;76.38;101590.41;5090700;28;20447;-74
2021/03/07 04:50:05;;;;;;;14.70;10.57;;;;;;;2.62;74.94;101581.25;5093923;28;20127;-74
2021/03/07 04:52:38;;;;;;;14.52;10.10;;;;;;;2.93;74.88;101607.25;5076356;28;20484;-74
2021/03/07 04:55:33;;;;;;;14.45;9.65;;;;;;;2.52;75.56;101604.38;5076357;28;20040;-75
2021/03/07 04:58:14;;;;;;;15.80;9.95;;;;;;;3.11;75.69;101600.25;5076253;28;20048;-74
2021/03/07 05:04:14;;;;;;;39.75;21.42;;;;;;;2.95;78.59;101600.63;5094324;28;20040;-75
2021/03/07 05:06:50;;;;;;;32.42;19.65;;;;;;;2.71;80.38;101569.78;5094111;28;20042;-75
2021/03/07 05:09:33;;;;;;;29.02;17.38;;;;;;;1.65;83.78;101592.34;5075944;28;20750;-75
2021/03/07 05:12:12;;;;;;;27.77;17.85;;;;;;;2.47;83.07;101584.97;5076313;28;20027;-76
2021/03/07 05:14:56;;;;;;;31.77;20.25;;;;;;;2.85;80.55;101607.06;5075816;28;20073;-75
2021/03/07 05:17:56;;;;;;;41.63;24.38;;;;;;;3.26;81.12;101610.72;5093762;28;20032;-74
2021/03/07 05:20:23;;;;;;;77.88;41.10;;;;;;;6.33;68.63;101572.91;5093407;28;20028;-74
2021/03/07 05:22:54;;;;;;;76.60;42.33;;;;;;;6.37;66.85;101585.59;5093529;28;20032;-74
2021/03/07 05:25:37;;;;;;;55.20;35.28;;;;;;;6.76;65.14;101591.22;5075619;28;20032;-73
2021/03/07 05:28:21;;;;;;;91.53;45.78;;;;;;;7.21;63.25;101595.16;5093543;28;20070;-73
2021/03/07 05:30:59;;;;;;;75.30;36.95;;;;;;;7.00;63.57;101575.50;5093535;28;20493;-74
2021/03/07 05:33:40;;;;;;;163.18;59.92;;;;;;;7.01;61.84;101587.34;5092437;28;20024;-75
2021/03/07 05:36:08;;;;;;;86.25;38.30;;;;;;;7.24;62.97;101598.56;5075446;28;20077;-75
2021/03/07 05:39:01;;;;;;;55.55;30.23;;;;;;;8.38;58.65;101601.34;5093449;28;20032;-74
2021/03/07 05:41:33;;;;;;;80.72;41.92;;;;;;;8.46;57.10;101604.78;5075352;28;20032;-74
2021/03/07 05:44:18;;;;;;;130.35;59.35;;;;;;;8.07;58.98;101604.47;5093209;28;20048;-75
2021/03/07 05:50:37;;;;;;;50.88;30.73;;;;;;;6.93;61.39;101616.72;5052849;28;20090;-75
2021/03/07 05:56:26;;;;;;;43.08;24.50;;;;;;;4.92;64.66;101620.75;5052892;28;20056;-74
2021/03/07 05:59:05;;;;;;;34.45;20.42;;;;;;;4.88;61.42;101613.06;5068138;28;20028;-74
2021/03/07 06:01:44;;;;;;;34.08;23.95;;;;;;;5.46;60.66;101608.41;5052921;28;20017;-74
2021/03/07 06:04:16;;;;;;;53.50;29.42;;;;;;;5.78;59.29;101601.41;5068147;28;20021;-75
2021/03/07 06:07:18;;;;;;;77.70;33.88;;;;;;;5.75;58.64;101616.50;5052522;28;20083;-74
2021/03/07 06:10:14;;;;;;;21.70;13.73;;;;;;;5.97;58.84;101614.41;5052377;28;20072;-74
2021/03/07 06:12:41;;;;;;;17.08;11.00;;;;;;;5.83;58.70;101617.47;5052270;28;20056;-78
2021/03/07 06:15:18;;;;;;;13.82;9.25;;;;;;;6.14;57.25;101581.84;5052707;28;20135;-74
2021/03/07 06:18:24;;;;;;;15.65;10.60;;;;;;;6.50;58.72;101606.81;5052622;28;20155;-75
2021/03/07 06:20:52;;;;;;;21.15;13.82;;;;;;;7.07;57.25;101605.13;5052270;28;20025;-75
2021/03/07 06:23:39;;;;;;;23.35;13.45;;;;;;;6.44;56.48;101604.22;5067989;28;20029;-75
2021/03/07 06:26:11;;;;;;;22.40;15.18;;;;;;;7.01;56.31;101602.50;5059026;28;20041;-74
2021/03/07 06:28:43;;;;;;;;;;;;;;;7.37;56.16;101602.91;5055846;28;20029;-77
2021/03/07 06:31:42;;;;;;;27.55;18.70;;;;;;;7.28;55.82;101605.34;5051726;28;20003;-82
2021/03/07 06:34:45;;;;;;;27.40;19.00;;;;;;;7.89;55.63;101604.31;5033601;28;20088;-79
2021/03/07 06:37:11;;;;;;;24.25;15.70;;;;;;;7.13;53.71;101604.34;5035243;28;20083;-80
2021/03/07 06:39:37;;;;;;;24.73;17.30;;;;;;;8.00;51.49;101579.94;4685359;28;10000198;-77
2021/03/07 06:42:08;;;;;;;22.92;14.13;;;;;;;8.35;52.11;101606.41;5047271;28;20094;-79
2021/03/07 06:44:36;;;;;;;16.02;10.65;;;;;;;7.45;51.74;101601.31;5063219;28;20115;-79
2021/03/07 06:47:13;;;;;;;9.15;6.45;;;;;;;8.33;49.13;101585.28;5029960;28;20095;-82
2021/03/07 06:50:10;;;;;;;10.73;7.82;;;;;;;7.03;53.65;101605.03;5046951;28;20048;-80
2021/03/07 06:52:57;;;;;;;10.35;7.88;;;;;;;7.82;50.89;101602.56;5047934;28;20490;-79
2021/03/07 06:55:29;;;;;;;9.25;6.38;;;;;;;7.60;50.91;101608.25;5046072;28;20033;-78
2021/03/07 06:57:55;;;;;;;10.25;7.35;;;;;;;7.43;51.10;101603.00;5046100;28;20587;-78
2021/03/07 07:00:40;;;;;;;10.05;7.32;;;;;;;8.25;51.02;101611.41;5047265;28;20037;-81
2021/03/07 07:03:15;;;;;;;10.10;8.00;;;;;;;8.42;49.46;101585.34;5045980;28;20052;-79
2021/03/07 07:05:47;;;;;;;9.32;6.70;;;;;;;8.50;50.22;101591.31;5045743;28;20098;-77
2021/03/07 07:08:16;;;;;;;;;;;;;;;8.15;49.37;101612.97;5045449;28;20083;-77
2021/03/07 07:10:53;;;;;;;9.18;7.00;;;;;;;8.59;50.59;101604.06;5044964;28;20356;-78
2021/03/07 07:13:25;;;;;;;8.93;5.72;;;;;;;8.32;50.90;101591.19;5045141;28;20098;-78
2021/03/07 07:16:01;;;;;;;11.68;6.32;;;;;;;8.51;50.12;101602.31;5045034;28;20041;-82
2021/03/07 07:18:31;;;;;;;7.65;5.20;;;;;;;8.54;50.15;101598.09;5046921;28;20026;-79
2021/03/07 07:20:58;;;;;;;8.23;5.25;;;;;;;8.02;49.23;101606.13;5045341;28;20048;-78
2021/03/07 07:23:27;;;;;;;7.63;5.90;;;;;;;9.61;47.73;101595.16;5048037;28;20040;-80
2021/03/07 07:25:53;;;;;;;7.78;5.35;;;;;;;8.67;50.01;101597.34;5052620;28;20040;-77
2021/03/07 07:28:22;;;;;;;7.22;4.97;;;;;;;7.50;50.19;101587.06;5052639;28;20481;-76
2021/03/07 07:31:02;;;;;;;7.35;5.28;;;;;;;9.33;47.78;101594.25;5047157;28;20076;-77
2021/03/07 07:34:12;;;;;;;7.90;5.70;;;;;;;7.20;52.62;101603.56;5056454;28;20130;-78
2021/03/07 07:36:49;;;;;;;6.93;4.40;;;;;;;8.35;50.54;101553.22;5056057;28;20098;-78
2021/03/07 07:39:32;;;;;;;6.10;4.70;;;;;;;8.85;48.65;101576.31;5061448;28;20067;-78
2021/03/07 07:42:16;;;;;;;6.85;4.00;;;;;;;8.91;46.46;101589.03;5047245;28;20064;-77
2021/03/07 07:44:43;;;;;;;6.40;3.50;;;;;;;9.70;44.03;101574.88;5048178;28;20047;-78
2021/03/07 07:47:11;;;;;;;5.15;3.55;;;;;;;9.19;45.42;101577.28;5053248;28;20063;-78
2021/03/07 07:49:46;;;;;;;12.52;6.18;;;;;;;8.96;46.94;101581.41;5065430;28;20131;-77
2021/03/07 07:52:24;;;;;;;7.18;3.53;;;;;;;9.61;45.65;101582.47;5068716;28;20025;-80
2021/03/07 07:54:58;;;;;;;6.55;4.07;;;;;;;9.53;45.95;101584.13;5069261;28;20041;-77
2021/03/07 07:57:42;;;;;;;5.07;3.50;;;;;;;9.27;45.67;101555.34;5068433;28;20035;-78
2021/03/07 08:00:15;;;;;;;6.70;4.47;;;;;;;9.47;45.85;101562.13;5068621;28;20024;-77
2021/03/07 08:02:44;;;;;;;6.75;3.75;;;;;;;9.34;45.29;101564.63;5067038;28;20028;-77
2021/03/07 08:05:24;;;;;;;6.38;4.10;;;;;;;9.93;43.92;101559.63;5068458;28;20031;-80
2021/03/07 08:08:12;;;;;;;14.18;6.90;;;;;;;8.81;46.50;101551.78;5070756;28;20033;-80
2021/03/07 08:10:40;;;;;;;8.85;4.53;;;;;;;8.86;47.08;101550.09;5070156;28;20028;-77
2021/03/07 08:13:10;;;;;;;8.88;5.32;;;;;;;10.01;45.13;101537.63;5071249;28;20033;-79
2021/03/07 08:16:11;;;;;;;9.25;5.40;;;;;;;10.15;46.31;101539.34;5071724;28;20028;-79
2021/03/07 08:19:00;;;;;;;5.55;3.42;;;;;;;8.66;46.59;101544.06;5070024;28;20036;-79
2021/03/07 08:22:07;;;;;;;7.30;4.30;;;;;;;9.07;45.38;101546.81;5070514;28;20580;-79
2021/03/07 08:24:58;;;;;;;7.55;3.80;;;;;;;9.71;44.15;101525.75;5069238;28;20123;-78
2021/03/07 08:27:42;;;;;;;5.28;3.30;;;;;;;10.03;42.88;101523.22;5068972;28;20048;-79
2021/03/07 08:30:36;;;;;;;6.20;3.47;;;;;;;8.23;47.37;101535.34;5069536;28;20032;-80
2021/03/07 08:33:42;;;;;;;6.57;3.40;;;;;;;8.60;45.72;101527.16;5071251;28;20028;-77
2021/03/07 08:36:26;;;;;;;4.70;2.97;;;;;;;9.93;42.83;101517.31;5070784;28;20115;-78
2021/03/07 08:39:01;;;;;;;8.07;6.07;;;;;;;10.13;42.22;101515.63;5068303;28;20494;-77
2021/03/07 08:41:41;;;;;;;6.63;4.28;;;;;;;10.04;41.94;101514.78;5051058;28;20025;-78
2021/03/07 08:44:13;;;;;;;7.38;3.90;;;;;;;10.04;42.47;101509.69;5049407;28;20031;-78
2021/03/07 08:46:47;;;;;;;9.20;5.50;;;;;;;10.39;41.65;101501.19;5049438;28;20540;-78
2021/03/07 08:49:31;;;;;;;6.22;3.60;;;;;;;9.48;42.69;101512.22;5049244;28;20055;-78
2021/03/07 08:52:05;;;;;;;6.38;3.10;;;;;;;9.38;42.61;101502.91;5048819;28;20055;-78
2021/03/07 08:54:34;;;;;;;5.28;3.03;;;;;;;8.68;43.82;101500.16;5050587;28;20045;-78
2021/03/07 09:00:21;;;;;;;6.03;4.10;;;;;;;9.47;42.82;101488.50;5050086;28;20055;-78
2021/03/07 09:06:13;;;;;;;5.30;2.90;;;;;;;7.81;44.99;101457.41;5049928;28;20559;-78
2021/03/07 09:08:39;;;;;;;11.30;5.75;;;;;;;9.96;40.82;101456.34;5052373;28;20024;-79
2021/03/07 09:11:21;;;;;;;5.40;3.33;;;;;;;10.67;39.94;101458.69;5049863;28;20029;-78
2021/03/07 09:13:49;;;;;;;5.30;3.30;;;;;;;10.37;40.85;101457.13;5049146;28;20059;-77
2021/03/07 09:16:52;;;;;;;5.85;3.95;;;;;;;9.14;43.63;101455.50;5048586;28;20024;-78
2021/03/07 09:19:45;;;;;;;7.00;4.05;;;;;;;8.90;43.16;101462.19;5050176;28;20045;-78
2021/03/07 09:22:16;;;;;;;7.53;3.92;;;;;;;8.96;43.85;101445.31;5049411;28;20037;-77
2021/03/07 09:24:55;;;;;;;32.72;14.02;;;;;;;10.28;43.07;101425.81;5050341;28;20032;-79
2021/03/07 09:28:10;;;;;;;9.45;6.43;;;;;;;10.14;41.29;101436.00;5049624;28;20075;-78
2021/03/07 09:33:58;;;;;;;5.95;4.05;;;;;;;11.53;39.45;101419.94;5048528;28;20048;-77
2021/03/07 09:36:39;;;;;;;4.82;3.83;;;;;;;11.96;39.08;101423.78;5047504;28;20234;-78
2021/03/07 09:39:21;;;;;;;7.15;4.80;;;;;;;11.84;39.19;101429.03;5047491;28;20025;-78
2021/03/07 09:41:52;;;;;;;7.90;5.13;;;;;;;11.40;39.73;101412.41;5047848;28;20056;-78
2021/03/07 09:44:33;;;;;;;5.28;3.13;;;;;;;10.54;39.46;101416.34;5048281;28;20029;-77
2021/03/07 09:46:59;;;;;;;4.97;3.65;;;;;;;10.23;43.34;101412.25;5048044;28;20112;-79
2021/03/07 09:49:33;;;;;;;5.10;3.30;;;;;;;11.23;39.30;101420.19;5064916;28;20498;-77
2021/03/07 09:52:03;;;;;;;10.05;5.05;;;;;;;11.74;39.92;101418.94;5050729;28;20037;-78
2021/03/07 09:54:51;;;;;;;7.45;4.60;;;;;;;11.73;38.54;101395.16;5069357;28;20127;-78
2021/03/07 09:57:47;;;;;;;8.00;4.10;;;;;;;11.93;39.31;101415.34;5051656;28;20020;-79
2021/03/07 10:00:14;;;;;;;6.32;3.80;;;;;;;12.67;37.47;101405.09;5051665;28;20028;-81
2021/03/07 10:02:42;;;;;;;6.55;3.60;;;;;;;12.26;39.05;101388.63;5068918;28;20048;-78
2021/03/07 10:05:28;;;;;;;10.60;7.35;;;;;;;12.43;36.87;101405.41;5068977;28;20099;-78
2021/03/07 10:08:24;;;;;;;7.65;4.90;;;;;;;11.89;38.65;101399.25;5051109;28;20666;-79
2021/03/07 10:11:26;;;;;;;6.40;3.80;;;;;;;11.32;37.51;101397.19;5051375;28;20030;-77
2021/03/07 10:13:58;;;;;;;5.35;4.00;;;;;;;10.28;40.41;101403.75;5068831;28;20029;-79
2021/03/07 10:16:39;;;;;;;5.30;3.53;;;;;;;9.67;42.69;101388.63;5050115;28;20036;-77
2021/03/07 10:19:09;;;;;;;4.53;3.50;;;;;;;9.38;42.64;101386.16;5067791;28;20058;-82
2021/03/07 10:21:55;;;;;;;5.63;4.63;;;;;;;9.64;44.11;101376.81;5050543;28;20020;-74
2021/03/07 10:24:32;;;;;;;5.65;3.67;;;;;;;9.51;43.49;101367.50;5070231;28;20052;-78
2021/03/07 10:27:07;;;;;;;6.05;3.67;;;;;;;11.35;40.75;101364.91;5051056;28;20032;-76
2021/03/07 10:29:50;;;;;;;13.13;7.63;;;;;;;11.71;38.63;101356.09;5068125;28;20436;-78
2021/03/07 10:32:15;;;;;;;8.80;5.38;;;;;;;12.49;37.89;101350.91;5049717;28;20040;-79
2021/03/07 10:34:47;;;;;;;5.60;3.30;;;;;;;10.77;41.90;101324.69;5049778;28;20028;-78
2021/03/07 10:37:33;;;;;;;;;;;;;;;11.11;45.11;101339.66;5051138;28;20033;-78
2021/03/07 10:40:00;;;;;;;10.65;6.25;;;;;;;12.10;38.88;101334.44;5079180;28;20064;-78
2021/03/07 10:42:36;;;;;;;18.85;9.48;;;;;;;11.61;39.27;101315.41;5069699;28;20020;-79
2021/03/07 10:45:20;;;;;;;44.67;35.05;;;;;;;12.02;37.26;101309.03;5087934;28;20092;-78
2021/03/07 10:48:15;;;;;;;12.88;9.18;;;;;;;12.97;36.64;101314.47;5088021;28;20105;-76
2021/03/07 10:50:49;;;;;;;8.48;5.43;;;;;;;12.92;36.79;101311.13;5081923;28;20109;-77
2021/03/07 10:53:18;;;;;;;8.70;5.10;;;;;;;13.60;35.01;101317.63;5070203;28;20039;-78
2021/03/07 10:55:51;;;;;;;6.25;3.90;;;;;;;13.35;35.29;101304.44;5088560;28;20397;-78
2021/03/07 10:58:23;;;;;;;10.38;6.43;;;;;;;13.01;36.22;101295.69;5088197;28;20103;-78
2021/03/07 11:00:48;;;;;;;5.43;4.10;;;;;;;13.31;34.71;101284.94;5068924;28;20060;-77
2021/03/07 11:03:15;;;;;;;6.38;4.15;;;;;;;13.58;34.62;101276.78;5068741;28;20073;-80
2021/03/07 11:05:42;;;;;;;7.22;4.93;;;;;;;12.55;36.04;101275.16;5068671;28;20031;-79
2021/03/07 11:08:11;;;;;;;6.93;4.70;;;;;;;12.34;36.12;101272.06;5086697;28;20028;-80
2021/03/07 11:10:36;;;;;;;8.48;4.85;;;;;;;13.22;34.32;101249.38;5069540;28;20120;-78
2021/03/07 11:13:02;;;;;;;8.60;5.50;;;;;;;13.87;34.78;101266.81;5068510;28;20118;-80
2021/03/07 11:15:27;;;;;;;9.07;8.13;;;;;;;12.17;35.03;101251.91;5068983;28;20028;-84
2021/03/07 11:18:05;;;;;;;7.28;4.50;;;;;;;13.28;33.32;101264.59;5069720;28;20028;-83
2021/03/07 11:20:31;;;;;;;7.43;5.10;;;;;;;12.68;33.75;101255.38;5087204;28;20028;-79
2021/03/07 11:23:01;;;;;;;7.30;4.53;;;;;;;13.17;33.00;101240.13;5086876;28;20036;-80
2021/03/07 11:25:27;;;;;;;7.57;4.40;;;;;;;12.30;34.25;101252.59;5085986;28;20425;-80
2021/03/07 11:27:53;;;;;;;8.30;5.50;;;;;;;13.67;35.34;101247.63;5068176;28;20024;-77
2021/03/07 11:30:19;;;;;;;6.60;5.22;;;;;;;12.30;34.20;101227.09;5086939;28;20339;-77
2021/03/07 11:32:45;;;;;;;7.63;4.88;;;;;;;13.22;33.53;101233.19;5090480;28;20111;-77
2021/03/07 11:35:11;;;;;;;7.63;4.78;;;;;;;13.21;32.82;101211.91;5087584;28;20180;-77
2021/03/07 11:37:39;;;;;;;7.07;4.90;;;;;;;14.13;31.70;101202.31;5073017;28;20021;-76
2021/03/07 11:40:20;;;;;;;6.30;4.68;;;;;;;13.66;30.75;101226.38;5078086;28;20506;-77
2021/03/07 11:42:47;;;;;;;6.63;4.90;;;;;;;14.62;29.83;101219.94;5052495;28;20036;-75
2021/03/07 11:45:26;;;;;;;6.05;4.60;;;;;;;13.62;30.95;101226.44;5072695;28;20143;-77
2021/03/07 11:47:52;;;;;;;5.95;4.40;;;;;;;13.60;30.84;101206.03;5052315;28;20047;-78
2021/03/07 11:50:22;;;;;;;6.82;4.45;;;;;;;13.29;29.81;101199.84;5051760;28;20021;-77
2021/03/07 11:52:47;;;;;;;7.38;4.30;;;;;;;13.67;29.90;101176.91;5051358;28;20044;-78
2021/03/07 11:55:13;;;;;;;5.80;4.28;;;;;;;14.28;29.73;101181.50;5051431;28;20046;-76
2021/03/07 11:57:39;;;;;;;9.63;5.55;;;;;;;13.47;30.54;101158.59;5051091;28;20032;-77
2021/03/07 12:00:14;;;;;;;4.03;3.47;;;;;;;13.68;31.90;101175.22;5051491;28;20543;-77
2021/03/07 12:02:39;;;;;;;7.28;5.00;;;;;;;14.49;30.22;101175.91;5068777;28;20093;-77
2021/03/07 12:05:08;;;;;;;10.73;6.30;;;;;;;14.21;30.97;101163.75;5050763;28;20038;-80
2021/03/07 12:07:35;;;;;;;5.28;3.72;;;;;;;14.53;31.02;101151.06;5051096;28;20021;-77
2021/03/07 12:10:01;;;;;;;12.45;7.80;;;;;;;13.68;31.34;101153.06;5050964;28;20047;-76
2021/03/07 12:12:28;;;;;;;13.10;9.23;;;;;;;12.57;32.89;101155.22;5068472;28;20040;-77
2021/03/07 12:15:04;;;;;;;9.65;6.95;;;;;;;13.04;32.94;101150.97;5050807;28;20041;-77
2021/03/07 12:17:30;;;;;;;8.23;6.40;;;;;;;13.67;31.23;101140.28;5068332;28;20028;-76
2021/03/07 12:19:56;;;;;;;7.43;5.07;;;;;;;13.81;31.04;101133.16;5068255;28;20094;-77
2021/03/07 12:22:22;;;;;;;5.82;4.55;;;;;;;14.07;31.20;101135.13;5069951;28;20028;-78
2021/03/07 12:24:49;;;;;;;6.45;4.60;;;;;;;13.70;31.69;101114.69;5071010;28;20044;-78
2021/03/07 12:27:17;;;;;;;7.63;4.68;;;;;;;15.14;30.14;101129.78;5052635;28;20025;-78
2021/03/07 12:29:47;;;;;;;7.13;4.80;;;;;;;13.77;30.78;101132.41;5069607;28;21011;-77
2021/03/07 12:32:13;;;;;;;5.05;4.10;;;;;;;14.94;29.35;101102.16;5051702;28;20043;-77